This is the latest recevied weather packets stored in our database for station/object K2EJ-13. If no packets are shown the sender has not sent any weather packets the latest 10 day(s).
| Time | Temp. | Humidity | Pressure | Rain* | Wind** | Luminosity | Snow |
|---|---|---|---|---|---|---|---|
| 1778010315 | 26.67° C | 42% | 1008.8 hPa | 0 mm | - | - | - |
| 1778009715 | 27.22° C | 42% | 1008.8 hPa | 0 mm | - | - | - |
| 1778002516 | 25.56° C | 48% | 1010.3 hPa | 0 mm | - | - | - |
| 1778001916 | 25.56° C | 46% | 1010.4 hPa | 0 mm | - | - | - |
| 1778001335 | 26.11° C | 48% | 1010.5 hPa | 0 mm | - | - | - |
| 1777999515 | 25° C | 49% | 1010.9 hPa | 0 mm | - | - | - |
| 1777996516 | 24.44° C | 49% | 1011.3 hPa | 0 mm | - | - | - |
| 1777995915 | 24.44° C | 47% | 1011.3 hPa | 0 mm | - | - | - |
| 1777994736 | 24.44° C | 48% | 1011.3 hPa | 0 mm | - | - | - |
| 1777991715 | 25° C | 45% | 1011.4 hPa | 0 mm | - | - | - |
| 1777989315 | 23.89° C | 49% | 1011.2 hPa | 0 mm | - | - | - |
| 1777983915 | 20.56° C | 58% | 1011.7 hPa | 0 mm | - | - | - |
| 1777983315 | 20° C | 61% | 1011.7 hPa | 0 mm | - | - | - |
| 1777979115 | 13.33° C | 95% | 1011.2 hPa | 0 mm | - | - | - |
| 1777974916 | 12.22° C | 96% | 1010.4 hPa | 0 mm | - | - | - |
| 1777974315 | 12.78° C | 95% | 1010.4 hPa | 0 mm | - | - | - |
| 1777967715 | 15° C | 86% | 1010.4 hPa | 0 mm | - | - | - |
| 1777966516 | 15.56° C | 86% | 1010.2 hPa | 0 mm | - | - | - |
| 1777962316 | 15° C | 92% | 1010.1 hPa | 0 mm | - | - | - |
| 1777960515 | 15.56° C | 87% | 1010.1 hPa | 0 mm | - | - | - |
| 1777959935 | 16.11° C | 86% | 1010.1 hPa | 0 mm | - | - | - |
| 1777959316 | 16.11° C | 86% | 1010.3 hPa | 0 mm | - | - | - |
| 1777955116 | 16.11° C | 82% | 1010 hPa | 0 mm | - | - | - |
| 1777954515 | 16.67° C | 81% | 1010 hPa | 0 mm | - | - | - |
| 1777952116 | 16.67° C | 76% | 1009.9 hPa | 0 mm | - | - | - |
* Rain latest hour (hover to see other rain measurements)
** Current wind speed in m/s (hover to see current wind gust speed)